createdAt,value
2023-03-04T00:01:29.343Z,12.47
2023-03-04T00:04:01.833Z,16.77
2023-03-04T00:06:40.533Z,15.00
2023-03-04T00:09:31.261Z,13.73
2023-03-04T00:12:14.764Z,13.80
2023-03-04T00:14:58.424Z,12.83
2023-03-04T00:17:49.205Z,16.90
2023-03-04T00:20:30.332Z,14.53
2023-03-04T00:23:05.866Z,14.33
2023-03-04T00:25:54.484Z,12.60
2023-03-04T00:28:32.567Z,12.33
2023-03-04T00:31:18.128Z,11.93
2023-03-04T00:34:06.368Z,13.87
2023-03-04T00:36:47.302Z,11.57
2023-03-04T00:39:47.317Z,12.57
2023-03-04T00:42:33.756Z,12.17
2023-03-04T00:45:24.316Z,16.10
2023-03-04T00:48:04.345Z,11.87
2023-03-04T00:50:52.467Z,14.70
2023-03-04T00:53:38.300Z,12.20
2023-03-04T00:56:27.278Z,12.53
2023-03-04T00:59:07.030Z,12.77
2023-03-04T01:02:05.126Z,11.57
2023-03-04T01:04:56.876Z,12.33
2023-03-04T01:07:33.898Z,17.00
2023-03-04T01:10:19.689Z,13.47
2023-03-04T01:13:07.919Z,14.83
2023-03-04T01:16:13.549Z,11.77
2023-03-04T01:18:47.579Z,13.00
2023-03-04T01:21:37.165Z,15.43
2023-03-04T01:24:34.370Z,14.60
2023-03-04T01:27:21.497Z,14.63
2023-03-04T01:30:03.957Z,14.57
2023-03-04T01:32:57.220Z,15.03
2023-03-04T01:35:57.922Z,14.17
2023-03-04T01:38:55.189Z,14.70
2023-03-04T01:41:32.450Z,15.97
2023-03-04T01:44:14.545Z,12.60
2023-03-04T01:46:59.270Z,15.97
2023-03-04T01:49:50.070Z,14.00
2023-03-04T01:52:51.398Z,12.17
2023-03-04T01:55:26.213Z,14.30
2023-03-04T01:58:04.081Z,14.70
2023-03-04T02:01:03.978Z,15.43
2023-03-04T02:03:37.419Z,13.97
2023-03-04T02:06:47.133Z,15.57
2023-03-04T02:09:37.270Z,15.73
2023-03-04T02:12:21.339Z,14.17
2023-03-04T02:15:05.136Z,15.07
2023-03-04T02:17:48.683Z,15.70
2023-03-04T02:20:48.141Z,16.10
2023-03-04T02:23:48.791Z,16.07
2023-03-04T02:26:55.339Z,14.93
2023-03-04T02:29:39.566Z,13.67
2023-03-04T02:32:19.469Z,14.30
2023-03-04T02:35:03.358Z,14.07
2023-03-04T02:37:36.733Z,12.30
2023-03-04T02:40:12.579Z,14.30
2023-03-04T02:43:12.568Z,14.57
2023-03-04T02:45:55.162Z,13.70
2023-03-04T02:48:52.963Z,14.77
2023-03-04T02:51:37.460Z,13.50
2023-03-04T02:54:34.228Z,13.97
2023-03-04T02:57:12.085Z,14.87
2023-03-04T02:59:50.035Z,13.27
2023-03-04T03:02:31.788Z,12.73
2023-03-04T03:05:16.475Z,12.93
2023-03-04T03:07:57.669Z,15.43
2023-03-04T03:11:04.345Z,15.70
2023-03-04T03:14:02.551Z,14.90
2023-03-04T03:17:02.806Z,14.10
2023-03-04T03:19:44.890Z,13.63
2023-03-04T03:22:17.919Z,16.43
2023-03-04T03:25:04.110Z,13.20
2023-03-04T03:27:39.745Z,15.43
2023-03-04T03:30:29.980Z,18.50
2023-03-04T03:33:41.942Z,15.67
2023-03-04T03:36:22.380Z,16.93
2023-03-04T03:39:05.222Z,16.63
2023-03-04T03:41:41.871Z,15.83
2023-03-04T03:44:16.427Z,18.10
2023-03-04T03:47:10.485Z,16.13
2023-03-04T03:50:23.220Z,20.43
2023-03-04T03:53:19.288Z,16.73
2023-03-04T03:55:50.829Z,19.20
2023-03-04T03:58:23.536Z,18.57
2023-03-04T04:01:09.069Z,20.70
2023-03-04T04:03:40.403Z,24.70
2023-03-04T04:06:23.566Z,18.90
2023-03-04T04:09:10.222Z,19.83
2023-03-04T04:12:18.068Z,21.73
2023-03-04T04:14:53.397Z,22.13
2023-03-04T04:17:44.065Z,16.90
2023-03-04T04:20:26.286Z,19.03
2023-03-04T04:23:14.135Z,18.27
2023-03-04T04:26:01.104Z,17.70
2023-03-04T04:28:50.378Z,17.33
2023-03-04T04:31:59.070Z,18.83
2023-03-04T04:34:50.795Z,19.30
2023-03-04T04:37:32.215Z,18.20
2023-03-04T04:40:15.657Z,20.77
2023-03-04T04:42:57.533Z,15.27
2023-03-04T04:45:50.252Z,19.03
2023-03-04T04:48:41.236Z,21.00
2023-03-04T04:51:40.790Z,18.37
2023-03-04T04:54:14.595Z,18.33
2023-03-04T04:57:01.364Z,18.77
2023-03-04T04:59:58.572Z,17.10
2023-03-04T05:02:31.610Z,16.17
2023-03-04T05:05:29.316Z,18.20
2023-03-04T05:08:23.403Z,17.60
2023-03-04T05:10:55.809Z,16.80
2023-03-04T05:13:38.941Z,16.67
2023-03-04T05:16:27.220Z,17.07
2023-03-04T05:19:29.600Z,17.83
2023-03-04T05:22:11.260Z,15.77
2023-03-04T05:24:51.966Z,18.70
2023-03-04T05:27:27.630Z,17.07
2023-03-04T05:30:22.573Z,20.63
2023-03-04T05:32:59.927Z,16.37
2023-03-04T05:36:03.816Z,21.10
2023-03-04T05:39:00.700Z,15.97
2023-03-04T05:41:38.066Z,17.77
2023-03-04T05:44:28.628Z,21.17
2023-03-04T05:47:50.390Z,18.47
2023-03-04T05:50:41.960Z,14.33
2023-03-04T05:53:42.836Z,19.47
2023-03-04T05:56:23.223Z,18.37
2023-03-04T05:59:02.722Z,17.80
2023-03-04T06:01:46.672Z,17.97
2023-03-04T06:04:20.424Z,18.43
2023-03-04T06:06:51.345Z,18.83
2023-03-04T06:09:50.109Z,19.67
2023-03-04T06:12:48.174Z,20.77
2023-03-04T06:15:47.856Z,20.47
2023-03-04T06:18:22.807Z,22.70
2023-03-04T06:21:01.261Z,19.27
2023-03-04T06:23:39.052Z,21.77
2023-03-04T06:26:27.209Z,22.07
2023-03-04T06:29:06.078Z,28.27
2023-03-04T06:31:45.539Z,47.60
2023-03-04T06:34:30.490Z,25.90
2023-03-04T06:37:32.867Z,31.23
2023-03-04T06:40:19.177Z,30.63
2023-03-04T06:43:06.568Z,25.67
2023-03-04T06:45:41.788Z,19.03
2023-03-04T06:48:35.903Z,17.93
2023-03-04T06:51:39.103Z,15.93
2023-03-04T06:54:49.018Z,18.20
2023-03-04T06:57:43.255Z,21.93
2023-03-04T07:00:35.210Z,24.03
2023-03-04T07:03:06.867Z,19.43
2023-03-04T07:05:37.739Z,20.03
2023-03-04T07:08:28.038Z,20.03
2023-03-04T07:11:04.447Z,21.83
2023-03-04T07:14:03.066Z,21.70
2023-03-04T07:16:43.268Z,18.83
2023-03-04T07:19:25.350Z,26.43
2023-03-04T07:22:04.828Z,22.77
2023-03-04T07:24:53.811Z,23.40
2023-03-04T07:27:38.903Z,21.70
2023-03-04T07:30:36.537Z,24.90
2023-03-04T07:33:35.391Z,21.57
2023-03-04T07:36:20.554Z,26.10
2023-03-04T07:39:09.990Z,20.37
2023-03-04T07:41:56.781Z,24.63
2023-03-04T07:44:58.562Z,24.63
2023-03-04T07:47:41.823Z,21.80
2023-03-04T07:50:25.326Z,25.00
2023-03-04T07:52:59.608Z,24.53
2023-03-04T07:55:32.504Z,24.17
2023-03-04T07:58:31.050Z,24.90
2023-03-04T08:01:23.300Z,26.57
2023-03-04T08:04:08.474Z,25.43
2023-03-04T08:06:45.355Z,22.57
2023-03-04T08:09:33.469Z,21.13
2023-03-04T08:12:06.457Z,21.83
2023-03-04T08:15:03.513Z,23.87
2023-03-04T08:18:07.339Z,26.47
2023-03-04T08:20:50.360Z,26.07
2023-03-04T08:23:46.500Z,28.17
2023-03-04T08:26:33.360Z,24.73
2023-03-04T08:29:23.458Z,26.70
2023-03-04T08:32:12.092Z,24.27
2023-03-04T08:34:49.796Z,25.83
2023-03-04T08:37:26.543Z,25.03
2023-03-04T08:40:26.533Z,24.17
2023-03-04T08:43:02.806Z,31.17
2023-03-04T08:45:41.822Z,23.33
2023-03-04T08:48:14.406Z,23.70
2023-03-04T08:50:55.916Z,23.20
2023-03-04T08:53:29.157Z,24.03
2023-03-04T08:56:04.004Z,25.63
2023-03-04T08:58:39.254Z,22.60
2023-03-04T09:01:21.407Z,25.27
2023-03-04T09:03:56.580Z,22.43
2023-03-04T09:06:40.433Z,24.80
2023-03-04T09:09:15.443Z,23.50
2023-03-04T09:11:52.049Z,21.67
2023-03-04T09:14:39.770Z,24.33
2023-03-04T09:17:14.137Z,23.50
2023-03-04T09:20:04.433Z,23.23
2023-03-04T09:22:41.017Z,20.07
2023-03-04T09:25:20.230Z,19.40
2023-03-04T09:28:09.444Z,25.73
2023-03-04T09:30:50.783Z,24.30
2023-03-04T09:33:32.211Z,18.93
2023-03-04T09:36:20.818Z,20.50
2023-03-04T09:39:07.766Z,18.03
2023-03-04T09:41:47.734Z,22.80
2023-03-04T09:44:26.606Z,23.33
2023-03-04T09:47:06.132Z,22.53
2023-03-04T09:49:47.695Z,22.50
2023-03-04T09:52:45.270Z,20.80
2023-03-04T09:55:38.890Z,20.23
2023-03-04T09:58:43.751Z,21.83
2023-03-04T10:01:27.652Z,21.60
2023-03-04T10:04:12.663Z,20.67
2023-03-04T10:06:47.267Z,19.77
2023-03-04T10:09:29.763Z,20.93
2023-03-04T10:12:21.226Z,21.77
2023-03-04T10:15:03.577Z,20.77
2023-03-04T10:17:47.990Z,19.47
2023-03-04T10:20:26.678Z,19.17
2023-03-04T10:23:10.835Z,30.63
2023-03-04T10:25:59.299Z,60.70
2023-03-04T10:28:43.830Z,22.10
2023-03-04T10:31:32.063Z,21.83
2023-03-04T10:34:12.882Z,29.10
2023-03-04T10:37:11.386Z,22.83
2023-03-04T10:39:57.464Z,22.83
2023-03-04T10:42:53.315Z,21.20
2023-03-04T10:45:37.049Z,22.40
2023-03-04T10:48:27.826Z,19.37
2023-03-04T10:51:23.551Z,18.93
2023-03-04T10:54:03.106Z,23.17
2023-03-04T10:56:47.840Z,26.87
2023-03-04T10:59:51.863Z,24.80
2023-03-04T11:02:35.171Z,18.67
2023-03-04T11:05:22.995Z,30.23
2023-03-04T11:08:02.844Z,18.47
2023-03-04T11:10:50.770Z,17.90
2023-03-04T11:13:31.262Z,18.57
2023-03-04T11:16:31.460Z,32.07
2023-03-04T11:19:20.162Z,25.20
2023-03-04T11:22:03.516Z,15.33
2023-03-04T11:24:50.432Z,109.00
2023-03-04T11:27:42.483Z,18.20
2023-03-04T11:30:39.331Z,20.83
2023-03-04T11:33:29.409Z,21.47
2023-03-04T11:36:33.998Z,17.87
2023-03-04T11:39:29.385Z,16.53
2023-03-04T11:42:09.104Z,80.13
2023-03-04T11:44:45.290Z,356.60
2023-03-04T11:47:38.527Z,30.17
2023-03-04T11:50:43.422Z,21.53
2023-03-04T11:53:41.071Z,65.33
2023-03-04T11:56:41.064Z,25.17
2023-03-04T12:00:07.762Z,31.40
2023-03-04T12:03:07.196Z,27.93
2023-03-04T12:05:57.609Z,29.73
2023-03-04T12:09:04.671Z,22.50
2023-03-04T12:11:57.828Z,28.23
2023-03-04T12:14:41.792Z,26.67
2023-03-04T12:17:52.468Z,28.80
2023-03-04T12:20:49.519Z,36.83
2023-03-04T12:23:52.640Z,31.43
2023-03-04T12:26:53.202Z,24.70
2023-03-04T12:29:38.654Z,33.73
2023-03-04T12:32:24.111Z,32.63
2023-03-04T12:35:43.236Z,29.30
2023-03-04T12:38:44.023Z,28.13
2023-03-04T12:41:39.471Z,25.00
2023-03-04T12:44:19.579Z,26.73
2023-03-04T12:47:19.023Z,73.13
2023-03-04T12:50:10.251Z,20.77
2023-03-04T12:52:58.673Z,35.93
2023-03-04T12:55:40.061Z,79.57
2023-03-04T12:58:33.528Z,27.00
2023-03-04T13:01:30.463Z,69.10
2023-03-04T13:04:30.839Z,22.23
2023-03-04T13:07:28.011Z,39.87
2023-03-04T13:10:17.574Z,64.93
2023-03-04T13:12:55.964Z,25.97
2023-03-04T13:15:46.462Z,26.47
2023-03-04T13:18:40.159Z,24.17
2023-03-04T13:21:27.106Z,25.20
2023-03-04T13:23:59.292Z,25.63
2023-03-04T13:26:37.853Z,25.20
2023-03-04T13:29:39.703Z,20.97
2023-03-04T13:32:44.306Z,33.10
2023-03-04T13:36:04.472Z,30.60
2023-03-04T13:38:42.911Z,23.63
2023-03-04T13:41:37.515Z,27.73
2023-03-04T13:45:03.000Z,121.10
2023-03-04T13:47:56.005Z,69.03
2023-03-04T13:50:50.326Z,363.47
2023-03-04T13:53:55.549Z,455.73
2023-03-04T13:56:43.551Z,249.33
2023-03-04T13:59:36.139Z,508.60
2023-03-04T14:02:23.015Z,752.70
2023-03-04T14:05:03.600Z,362.90
2023-03-04T14:07:43.595Z,451.43
2023-03-04T14:10:29.479Z,83.10
2023-03-04T14:13:11.614Z,54.33
2023-03-04T14:16:03.674Z,100.77
2023-03-04T14:18:41.435Z,22.13
2023-03-04T14:21:18.838Z,24.73
2023-03-04T14:24:06.392Z,23.53
2023-03-04T14:26:45.151Z,23.43
2023-03-04T14:29:32.273Z,23.07
2023-03-04T14:32:09.102Z,24.43
2023-03-04T14:34:42.023Z,52.73
2023-03-04T14:37:25.852Z,22.30
2023-03-04T14:40:08.779Z,23.77
2023-03-04T14:43:16.359Z,24.37
2023-03-04T14:45:56.319Z,25.40
2023-03-04T14:48:39.682Z,36.33
2023-03-04T14:51:46.942Z,24.67
2023-03-04T14:54:49.486Z,32.43
2023-03-04T14:57:39.771Z,55.67
2023-03-04T15:00:41.417Z,68.37
2023-03-04T15:03:30.646Z,31.60
2023-03-04T15:06:18.332Z,64.57
2023-03-04T15:09:02.710Z,30.93
2023-03-04T15:11:55.913Z,26.77
2023-03-04T15:14:51.556Z,25.63
2023-03-04T15:17:39.272Z,29.07
2023-03-04T15:20:38.230Z,28.20
2023-03-04T15:23:15.534Z,25.03
2023-03-04T15:25:59.863Z,26.43
2023-03-04T15:28:42.840Z,22.20
2023-03-04T15:31:22.581Z,22.07
2023-03-04T15:34:20.113Z,20.87
2023-03-04T15:37:01.108Z,24.90
2023-03-04T15:39:46.293Z,23.97
2023-03-04T15:42:31.672Z,22.33
2023-03-04T15:45:27.673Z,21.40
2023-03-04T15:48:06.718Z,22.50
2023-03-04T15:51:00.769Z,24.40
2023-03-04T15:53:46.800Z,24.43
2023-03-04T15:56:22.601Z,27.77
2023-03-04T15:58:59.640Z,26.13
2023-03-04T16:01:36.121Z,22.07
2023-03-04T16:04:20.331Z,22.00
2023-03-04T16:07:03.780Z,23.67
2023-03-04T16:09:59.851Z,25.10
2023-03-04T16:12:55.695Z,20.57
2023-03-04T16:15:29.918Z,23.10
2023-03-04T16:18:24.175Z,23.70
2023-03-04T16:21:20.991Z,23.23
2023-03-04T16:24:38.231Z,21.60
2023-03-04T16:27:18.546Z,25.67
2023-03-04T16:29:59.170Z,26.37
2023-03-04T16:32:49.190Z,22.53
2023-03-04T16:35:38.539Z,25.30
2023-03-04T16:38:35.932Z,24.27
2023-03-04T16:41:19.932Z,22.70
2023-03-04T16:43:57.079Z,25.97
2023-03-04T16:46:31.221Z,23.37
2023-03-04T16:49:24.340Z,24.30
2023-03-04T16:52:21.457Z,21.13
2023-03-04T16:55:19.219Z,26.80
2023-03-04T16:58:18.789Z,22.23
2023-03-04T17:01:15.369Z,20.97
2023-03-04T17:03:57.002Z,22.37
2023-03-04T17:07:21.618Z,23.40
2023-03-04T17:10:02.288Z,23.47
2023-03-04T17:12:39.620Z,22.63
2023-03-04T17:15:32.632Z,25.20
2023-03-04T17:18:20.856Z,23.93
2023-03-04T17:21:11.427Z,19.13
2023-03-04T17:24:00.332Z,21.80
2023-03-04T17:26:46.190Z,22.40
2023-03-04T17:29:16.999Z,20.53
2023-03-04T17:32:06.911Z,21.70
2023-03-04T17:34:42.561Z,18.60
2023-03-04T17:37:42.312Z,25.67
2023-03-04T17:40:34.322Z,24.87
2023-03-04T17:43:27.104Z,24.10
2023-03-04T17:46:11.271Z,20.93
2023-03-04T17:48:56.890Z,25.17
2023-03-04T17:51:49.517Z,26.17
2023-03-04T17:54:40.950Z,27.37
2023-03-04T17:57:16.292Z,23.07
2023-03-04T18:00:07.499Z,27.90
2023-03-04T18:02:50.413Z,21.90
2023-03-04T18:05:50.340Z,21.77
2023-03-04T18:08:34.818Z,21.57
2023-03-04T18:11:12.500Z,21.77
2023-03-04T18:13:49.386Z,22.33
2023-03-04T18:16:28.538Z,23.07
2023-03-04T18:19:09.530Z,26.67
2023-03-04T18:21:53.974Z,20.60
2023-03-04T18:24:48.531Z,20.70
2023-03-04T18:27:46.233Z,21.67
2023-03-04T18:30:29.619Z,24.40
2023-03-04T18:33:03.207Z,21.37
2023-03-04T18:35:56.180Z,23.70
2023-03-04T18:38:58.351Z,26.77
2023-03-04T18:41:30.329Z,20.87
2023-03-04T18:44:14.503Z,21.73
2023-03-04T18:46:52.207Z,24.17
2023-03-04T18:49:44.333Z,23.63
2023-03-04T18:52:28.732Z,21.70
2023-03-04T18:55:25.116Z,22.70
2023-03-04T18:58:05.943Z,24.93
2023-03-04T19:00:45.571Z,22.70
2023-03-04T19:03:34.458Z,22.00
2023-03-04T19:06:09.307Z,21.30
2023-03-04T19:09:02.897Z,20.60
2023-03-04T19:12:05.645Z,19.43
2023-03-04T19:14:45.028Z,19.10
2023-03-04T19:17:35.299Z,24.03
2023-03-04T19:20:17.841Z,23.67
2023-03-04T19:23:01.686Z,28.63
2023-03-04T19:25:48.388Z,26.87
2023-03-04T19:28:39.906Z,28.73
2023-03-04T19:31:49.322Z,29.93
2023-03-04T19:34:28.729Z,33.23
2023-03-04T19:37:12.196Z,31.13
2023-03-04T19:39:49.465Z,26.13
2023-03-04T19:42:33.435Z,25.07
2023-03-04T19:45:13.372Z,23.97
2023-03-04T19:47:54.413Z,26.60
2023-03-04T19:50:46.911Z,25.60
2023-03-04T19:53:32.914Z,24.70
2023-03-04T19:56:23.009Z,22.33
2023-03-04T19:59:05.293Z,31.53
2023-03-04T20:02:16.353Z,22.80
2023-03-04T20:05:05.369Z,25.37
2023-03-04T20:07:40.407Z,21.13
2023-03-04T20:10:16.276Z,24.27
2023-03-04T20:13:09.461Z,25.37
2023-03-04T20:15:52.508Z,21.07
2023-03-04T20:18:48.366Z,27.23
2023-03-04T20:21:45.499Z,25.40
2023-03-04T20:24:32.421Z,28.40
2023-03-04T20:27:04.820Z,22.87
2023-03-04T20:29:45.028Z,22.43
2023-03-04T20:32:35.920Z,29.63
2023-03-04T20:35:42.134Z,24.60
2023-03-04T20:38:21.329Z,25.77
2023-03-04T20:41:06.129Z,22.23
2023-03-04T20:43:55.893Z,24.57
2023-03-04T20:46:58.268Z,31.20
2023-03-04T20:49:40.792Z,23.07
2023-03-04T20:52:41.342Z,23.10
2023-03-04T20:55:34.970Z,20.67
2023-03-04T20:58:25.984Z,26.70
2023-03-04T21:01:14.352Z,24.97
2023-03-04T21:03:53.167Z,25.57
2023-03-04T21:06:40.084Z,25.23
2023-03-04T21:09:27.187Z,24.90
2023-03-04T21:12:24.499Z,25.20
2023-03-04T21:15:12.995Z,25.87
2023-03-04T21:17:49.074Z,28.50
2023-03-04T21:20:27.910Z,32.30
2023-03-04T21:23:15.140Z,30.20
2023-03-04T21:25:58.705Z,28.50
2023-03-04T21:28:47.678Z,29.27
2023-03-04T21:31:30.667Z,27.27
2023-03-04T21:34:39.940Z,26.40
2023-03-04T21:37:24.401Z,30.20
2023-03-04T21:40:20.363Z,28.93
2023-03-04T21:43:11.173Z,24.73
2023-03-04T21:45:47.190Z,27.27
2023-03-04T21:48:21.233Z,23.77
2023-03-04T21:50:54.520Z,25.03
2023-03-04T21:53:39.169Z,29.00
2023-03-04T21:56:28.775Z,26.27
2023-03-04T21:59:19.634Z,29.23
2023-03-04T22:01:58.194Z,32.80
2023-03-04T22:04:57.996Z,24.53
2023-03-04T22:07:40.424Z,27.33
2023-03-04T22:10:31.437Z,28.23
2023-03-04T22:13:03.731Z,27.17
2023-03-04T22:15:50.739Z,28.27
2023-03-04T22:18:57.716Z,25.33
2023-03-04T22:21:32.287Z,26.83
2023-03-04T22:24:32.846Z,24.87
2023-03-04T22:27:22.190Z,24.47
2023-03-04T22:30:01.051Z,25.97
2023-03-04T22:32:39.806Z,27.10
2023-03-04T22:35:24.003Z,34.60
2023-03-04T22:38:17.436Z,26.80
2023-03-04T22:40:54.008Z,31.00
2023-03-04T22:43:42.176Z,33.33
2023-03-04T22:46:23.214Z,26.37
2023-03-04T22:49:05.112Z,26.93
2023-03-04T22:51:38.291Z,23.30
2023-03-04T22:54:15.768Z,28.90
2023-03-04T22:57:02.303Z,24.93
2023-03-04T22:59:38.244Z,29.40
2023-03-04T23:02:21.393Z,24.23
2023-03-04T23:05:05.339Z,25.50
2023-03-04T23:07:44.262Z,23.27
2023-03-04T23:10:33.690Z,27.53
2023-03-04T23:13:38.519Z,25.40
2023-03-04T23:16:28.722Z,27.80
2023-03-04T23:19:18.676Z,25.97
2023-03-04T23:22:15.250Z,24.70
2023-03-04T23:25:19.332Z,25.43
2023-03-04T23:28:13.696Z,23.80
2023-03-04T23:30:51.285Z,21.03
2023-03-04T23:33:31.794Z,22.27
2023-03-04T23:36:19.116Z,25.43
2023-03-04T23:39:13.027Z,24.70
2023-03-04T23:41:48.413Z,24.63
2023-03-04T23:44:43.670Z,19.50
2023-03-04T23:47:14.916Z,22.87
2023-03-04T23:50:22.850Z,24.13
2023-03-04T23:53:19.054Z,22.03
2023-03-04T23:56:01.116Z,24.33
2023-03-04T23:58:47.316Z,22.00
